PWSweather.com
Personal Weather Stations
Station Observations
KMICHEBO10
Cordwood Point, Lake Huron, Cheboygan, MI 49721

Cordwood Point, Lake HuronCheboygan, MI 49721

Lat: 45.663372, Lon: -84.3327789

Elevation: 584

Station Type: Davis Vantage Pro2 Wireless

http://www.lakehuronweather.org

Latest ConditionsUpdated 6:10:00 PM EST Sunday, Dec 16, 2018
Currently Today's Max Today's Min Today's Average
Temperature 35.2°F1.8°C 41.8°F5.4°C 26.2°F-3.2°C 32.7°F0.4°C
Dew Point 30.8°F-0.7°C 32.7°F0.4°C 25.0°F-3.9°C 29.3°F-1.5°C
Winds 1.2 mph SW1.9 kmh SW 4.6 mph -7.4 kmh - - 1.4 mph 2.3 kmh
Wind Gusts 4.6 mph7.4 kmh 9.2 mph14.8 kmh - -
Humidity 84% 97% 65% 88%
Pressure 29.84 in1010.5 mb 30.17 in1021.7 mb 29.84 in1010.5 mb -
Precipitation - 0.01 in0.3 mm - -
Hour Temp Dew Point Humidity Winds Wind Gusts Pressure Precip Precip Rate Daily Precip Total
06:10 PM 35.2°F1.8°C 30.8°F-0.7°C 84% 1.2 mph SW1.9 kmh SW 4.6 mph7.4 kmh 29.84 in1010.5 mb - 0.00 in0.0 mm 0.01 in0.3 mm
06:00 PM 35.4°F1.9°C 30.8°F-0.7°C 83% 1.2 mph S1.9 kmh S 2.3 mph3.7 kmh 29.84 in1010.5 mb - 0.00 in0.0 mm 0.01 in0.3 mm
05:50 PM 35.5°F1.9°C 30.5°F-0.8°C 82% 2.3 mph S3.7 kmh S 3.5 mph5.6 kmh 29.85 in1010.8 mb - 0.00 in0.0 mm 0.01 in0.3 mm
05:40 PM 35.7°F2.1°C 30.5°F-0.8°C 81% 1.2 mph SW1.9 kmh SW 2.3 mph3.7 kmh 29.85 in1010.8 mb - 0.00 in0.0 mm 0.01 in0.3 mm
05:30 PM 36.0°F2.2°C 30.4°F-0.9°C 80% 1.2 mph SSW1.9 kmh SSW 1.2 mph1.9 kmh 29.85 in1010.8 mb - 0.00 in0.0 mm 0.01 in0.3 mm
05:20 PM 36.2°F2.3°C 30.3°F-0.9°C 79% 1.2 mph S1.9 kmh S 1.2 mph1.9 kmh 29.86 in1011.2 mb - 0.00 in0.0 mm 0.01 in0.3 mm
05:10 PM 36.6°F2.6°C 30.7°F-0.7°C 79% 3.5 mph S5.6 kmh S 5.8 mph9.3 kmh 29.86 in1011.2 mb - 0.00 in0.0 mm 0.01 in0.3 mm
05:00 PM 37.0°F2.8°C 30.5°F-0.8°C 77% 1.2 mph SW1.9 kmh SW 3.5 mph5.6 kmh 29.86 in1011.2 mb - 0.00 in0.0 mm 0.01 in0.3 mm
04:50 PM 37.5°F3.1°C 30.7°F-0.7°C 76% 1.2 mph S1.9 kmh S 2.3 mph3.7 kmh 29.87 in1011.5 mb - 0.00 in0.0 mm 0.01 in0.3 mm
04:40 PM 38.3°F3.5°C 31.1°F-0.5°C 75% Calm Calm 2.3 mph3.7 kmh 29.87 in1011.5 mb - 0.00 in0.0 mm 0.01 in0.3 mm
04:30 PM 38.8°F3.8°C 30.9°F-0.6°C 73% 2.3 mph SSW3.7 kmh SSW 2.3 mph3.7 kmh 29.87 in1011.5 mb - 0.00 in0.0 mm 0.01 in0.3 mm
04:20 PM 39.4°F4.1°C 31.1°F-0.5°C 72% 2.3 mph SSW3.7 kmh SSW 3.5 mph5.6 kmh 29.87 in1011.5 mb - 0.00 in0.0 mm 0.01 in0.3 mm
04:10 PM 39.8°F4.3°C 31.1°F-0.5°C 71% 2.3 mph SW3.7 kmh SW 8.1 mph13.0 kmh 29.87 in1011.5 mb - 0.00 in0.0 mm 0.01 in0.3 mm
04:00 PM 40.0°F4.4°C 31.0°F-0.6°C 70% Calm Calm 2.3 mph3.7 kmh 29.87 in1011.5 mb - 0.00 in0.0 mm 0.01 in0.3 mm
03:50 PM 40.4°F4.7°C 31.0°F-0.6°C 69% 1.2 mph SW1.9 kmh SW 3.5 mph5.6 kmh 29.87 in1011.5 mb - 0.00 in0.0 mm 0.01 in0.3 mm
03:40 PM 40.7°F4.8°C 31.3°F-0.4°C 69% 1.2 mph W1.9 kmh W 3.5 mph5.6 kmh 29.86 in1011.2 mb - 0.00 in0.0 mm 0.01 in0.3 mm
03:30 PM 40.8°F4.9°C 31.1°F-0.5°C 68% Calm Calm 1.2 mph1.9 kmh 29.86 in1011.2 mb - 0.00 in0.0 mm 0.01 in0.3 mm
03:20 PM 41.1°F5.1°C 31.0°F-0.6°C 67% 1.2 mph W1.9 kmh W 1.2 mph1.9 kmh 29.86 in1011.2 mb - 0.00 in0.0 mm 0.01 in0.3 mm
03:10 PM 41.6°F5.3°C 31.4°F-0.3°C 67% 1.2 mph WNW1.9 kmh WNW 2.3 mph3.7 kmh 29.86 in1011.2 mb - 0.00 in0.0 mm 0.01 in0.3 mm
03:00 PM 41.8°F5.4°C 31.3°F-0.4°C 66% 1.2 mph SW1.9 kmh SW 2.3 mph3.7 kmh 29.86 in1011.2 mb - 0.00 in0.0 mm 0.01 in0.3 mm
02:50 PM 41.7°F5.4°C 30.8°F-0.7°C 65% 1.2 mph SW1.9 kmh SW 3.5 mph5.6 kmh 29.87 in1011.5 mb - 0.00 in0.0 mm 0.01 in0.3 mm
02:40 PM 41.7°F5.4°C 30.8°F-0.7°C 65% 2.3 mph SW3.7 kmh SW 3.5 mph5.6 kmh 29.87 in1011.5 mb - 0.00 in0.0 mm 0.01 in0.3 mm
02:30 PM 41.7°F5.4°C 31.2°F-0.4°C 66% 2.3 mph SW3.7 kmh SW 5.8 mph9.3 kmh 29.88 in1011.9 mb - 0.00 in0.0 mm 0.01 in0.3 mm
02:20 PM 41.7°F5.4°C 31.2°F-0.4°C 66% 1.2 mph SW1.9 kmh SW 2.3 mph3.7 kmh 29.88 in1011.9 mb - 0.00 in0.0 mm 0.01 in0.3 mm
02:10 PM 41.6°F5.3°C 30.7°F-0.7°C 65% 1.2 mph SW1.9 kmh SW 2.3 mph3.7 kmh 29.88 in1011.9 mb - 0.00 in0.0 mm 0.01 in0.3 mm
02:00 PM 41.5°F5.3°C 31.0°F-0.6°C 66% 3.5 mph SW5.6 kmh SW 4.6 mph7.4 kmh 29.89 in1012.2 mb - 0.00 in0.0 mm 0.01 in0.3 mm
01:50 PM 41.5°F5.3°C 30.6°F-0.8°C 65% 3.5 mph SW5.6 kmh SW 3.5 mph5.6 kmh 29.89 in1012.2 mb - 0.00 in0.0 mm 0.01 in0.3 mm
01:40 PM 41.3°F5.2°C 30.8°F-0.7°C 66% 2.3 mph SW3.7 kmh SW 4.6 mph7.4 kmh 29.89 in1012.2 mb - 0.00 in0.0 mm 0.01 in0.3 mm
01:30 PM 40.8°F4.9°C 30.7°F-0.7°C 67% 2.3 mph WSW3.7 kmh WSW 4.6 mph7.4 kmh 29.90 in1012.5 mb - 0.00 in0.0 mm 0.01 in0.3 mm
01:20 PM 40.2°F4.6°C 31.2°F-0.4°C 70% 1.2 mph SW1.9 kmh SW 3.5 mph5.6 kmh 29.91 in1012.9 mb - 0.00 in0.0 mm 0.01 in0.3 mm
01:10 PM 40.0°F4.4°C 32.7°F0.4°C 75% 2.3 mph S3.7 kmh S 4.6 mph7.4 kmh 29.91 in1012.9 mb - 0.00 in0.0 mm 0.01 in0.3 mm
01:00 PM 39.5°F4.2°C 32.3°F0.2°C 75% 1.2 mph S1.9 kmh S 3.5 mph5.6 kmh 29.92 in1013.2 mb - 0.00 in0.0 mm 0.01 in0.3 mm
12:50 PM 38.8°F3.8°C 32.6°F0.3°C 78% 1.2 mph S1.9 kmh S 4.6 mph7.4 kmh 29.92 in1013.2 mb - 0.00 in0.0 mm 0.01 in0.3 mm
12:40 PM 38.3°F3.5°C 32.0°F0.0°C 78% 1.2 mph SW1.9 kmh SW 2.3 mph3.7 kmh 29.92 in1013.2 mb - 0.00 in0.0 mm 0.01 in0.3 mm
12:30 PM 37.9°F3.3°C 32.0°F0.0°C 79% 2.3 mph S3.7 kmh S 3.5 mph5.6 kmh 29.93 in1013.5 mb - 0.00 in0.0 mm 0.01 in0.3 mm
12:20 PM 37.5°F3.1°C 31.6°F-0.2°C 79% 2.3 mph SSE3.7 kmh SSE 4.6 mph7.4 kmh 29.94 in1013.9 mb - 0.00 in0.0 mm 0.01 in0.3 mm
12:10 PM 36.7°F2.6°C 32.0°F0.0°C 83% 1.2 mph SE1.9 kmh SE 2.3 mph3.7 kmh 29.95 in1014.2 mb - 0.00 in0.0 mm 0.01 in0.3 mm
12:00 PM 35.6°F2.0°C 32.1°F0.1°C 87% 1.2 mph SE1.9 kmh SE 3.5 mph5.6 kmh 29.96 in1014.6 mb - 0.00 in0.0 mm 0.01 in0.3 mm
11:50 AM 34.8°F1.6°C 31.9°F-0.1°C 89% Calm Calm -- 29.96 in1014.6 mb - 0.00 in0.0 mm 0.01 in0.3 mm
11:40 AM 34.0°F1.1°C 31.6°F-0.2°C 91% Calm Calm 2.3 mph3.7 kmh 29.97 in1014.9 mb - 0.00 in0.0 mm 0.01 in0.3 mm
11:30 AM 33.4°F0.8°C 31.3°F-0.4°C 92% 3.5 mph SW5.6 kmh SW 4.6 mph7.4 kmh 29.98 in1015.2 mb - 0.00 in0.0 mm 0.01 in0.3 mm
11:20 AM 33.0°F0.6°C 31.2°F-0.4°C 93% Calm Calm 1.2 mph1.9 kmh 29.99 in1015.6 mb - 0.00 in0.0 mm 0.01 in0.3 mm
11:10 AM 33.0°F0.6°C 31.2°F-0.4°C 93% 1.2 mph S1.9 kmh S 3.5 mph5.6 kmh 29.99 in1015.6 mb - 0.00 in0.0 mm 0.01 in0.3 mm
11:00 AM 33.1°F0.6°C 31.3°F-0.4°C 93% Calm Calm 1.2 mph1.9 kmh 30.00 in1015.9 mb - 0.01 in0.3 mm 0.01 in0.3 mm
10:50 AM 33.0°F0.6°C 31.5°F-0.3°C 94% Calm Calm 1.2 mph1.9 kmh 30.00 in1015.9 mb - 0.01 in0.3 mm 0.01 in0.3 mm
10:40 AM 32.9°F0.5°C 31.6°F-0.2°C 95% Calm Calm 2.3 mph3.7 kmh 30.01 in1016.3 mb - 0.00 in0.0 mm 0.00 in0.0 mm
10:30 AM 32.6°F0.3°C 31.6°F-0.2°C 96% Calm Calm 1.2 mph1.9 kmh 30.02 in1016.6 mb - 0.00 in0.0 mm 0.00 in0.0 mm
10:20 AM 32.0°F0.0°C 31.3°F-0.4°C 97% 3.5 mph SSW5.6 kmh SSW 4.6 mph7.4 kmh 30.02 in1016.6 mb - 0.00 in0.0 mm 0.00 in0.0 mm
10:10 AM 31.3°F-0.4°C 30.6°F-0.8°C 97% 1.2 mph SE1.9 kmh SE 3.5 mph5.6 kmh 30.01 in1016.3 mb - 0.00 in0.0 mm 0.00 in0.0 mm
10:00 AM 30.7°F-0.7°C 30.0°F-1.1°C 97% Calm Calm -- 30.01 in1016.3 mb - 0.00 in0.0 mm 0.00 in0.0 mm
09:50 AM 30.5°F-0.8°C 29.5°F-1.4°C 96% Calm Calm 1.2 mph1.9 kmh 30.01 in1016.3 mb - 0.00 in0.0 mm 0.00 in0.0 mm
09:40 AM 30.5°F-0.8°C 29.5°F-1.4°C 96% 1.2 mph SSE1.9 kmh SSE 2.3 mph3.7 kmh 30.02 in1016.6 mb - 0.00 in0.0 mm 0.00 in0.0 mm
09:30 AM 30.5°F-0.8°C 29.5°F-1.4°C 96% 1.2 mph S1.9 kmh S 1.2 mph1.9 kmh 30.03 in1016.9 mb - 0.00 in0.0 mm 0.00 in0.0 mm
09:20 AM 30.5°F-0.8°C 29.5°F-1.4°C 96% Calm Calm 1.2 mph1.9 kmh 30.03 in1016.9 mb - 0.00 in0.0 mm 0.00 in0.0 mm
09:10 AM 30.5°F-0.8°C 29.8°F-1.2°C 97% 1.2 mph WNW1.9 kmh WNW 1.2 mph1.9 kmh 30.04 in1017.3 mb - 0.00 in0.0 mm 0.00 in0.0 mm
09:00 AM 30.5°F-0.8°C 29.7°F-1.3°C 97% 1.2 mph S1.9 kmh S 3.5 mph5.6 kmh 30.05 in1017.6 mb - 0.00 in0.0 mm 0.00 in0.0 mm
08:50 AM 30.4°F-0.9°C 29.7°F-1.3°C 97% Calm Calm 2.3 mph3.7 kmh 30.03 in1016.9 mb - 0.00 in0.0 mm 0.00 in0.0 mm
08:40 AM 30.3°F-0.9°C 29.6°F-1.3°C 97% Calm Calm 1.2 mph1.9 kmh 30.03 in1016.9 mb - 0.00 in0.0 mm 0.00 in0.0 mm
08:30 AM 30.4°F-0.9°C 29.7°F-1.3°C 97% 1.2 mph S1.9 kmh S 1.2 mph1.9 kmh 30.03 in1016.9 mb - 0.00 in0.0 mm 0.00 in0.0 mm
08:20 AM 30.4°F-0.9°C 29.4°F-1.4°C 96% 1.2 mph SW1.9 kmh SW 2.3 mph3.7 kmh 30.04 in1017.3 mb - 0.00 in0.0 mm 0.00 in0.0 mm
08:10 AM 30.5°F-0.8°C 29.5°F-1.4°C 96% 1.2 mph SSE1.9 kmh SSE 2.3 mph3.7 kmh 30.03 in1016.9 mb - 0.00 in0.0 mm 0.00 in0.0 mm
08:00 AM 30.5°F-0.8°C 29.5°F-1.4°C 96% Calm Calm 1.2 mph1.9 kmh 30.02 in1016.6 mb - 0.00 in0.0 mm 0.00 in0.0 mm
07:50 AM 30.6°F-0.8°C 29.6°F-1.3°C 96% Calm Calm 2.3 mph3.7 kmh 30.03 in1016.9 mb - 0.00 in0.0 mm 0.00 in0.0 mm
07:40 AM 30.7°F-0.7°C 30.0°F-1.1°C 97% 3.5 mph S5.6 kmh S 8.1 mph13.0 kmh 30.04 in1017.3 mb - 0.00 in0.0 mm 0.00 in0.0 mm
07:30 AM 30.8°F-0.7°C 30.0°F-1.1°C 97% 2.3 mph SSE3.7 kmh SSE 3.5 mph5.6 kmh 30.05 in1017.6 mb - 0.00 in0.0 mm 0.00 in0.0 mm
07:20 AM 30.9°F-0.6°C 30.1°F-1.1°C 97% 3.5 mph SE5.6 kmh SE 3.5 mph5.6 kmh 30.05 in1017.6 mb - 0.00 in0.0 mm 0.00 in0.0 mm
07:10 AM 31.0°F-0.6°C 30.2°F-1.0°C 97% 3.5 mph SE5.6 kmh SE 4.6 mph7.4 kmh 30.05 in1017.6 mb - 0.00 in0.0 mm 0.00 in0.0 mm
07:00 AM 30.8°F-0.7°C 30.0°F-1.1°C 97% 3.5 mph SSW5.6 kmh SSW 3.5 mph5.6 kmh 30.06 in1017.9 mb - 0.00 in0.0 mm 0.00 in0.0 mm
06:50 AM 30.7°F-0.7°C 30.0°F-1.1°C 97% 1.2 mph SSW1.9 kmh SSW 3.5 mph5.6 kmh 30.07 in1018.3 mb - 0.00 in0.0 mm 0.00 in0.0 mm
06:40 AM 30.6°F-0.8°C 29.9°F-1.2°C 97% 1.2 mph S1.9 kmh S 3.5 mph5.6 kmh 30.07 in1018.3 mb - 0.00 in0.0 mm 0.00 in0.0 mm
06:30 AM 30.5°F-0.8°C 29.8°F-1.2°C 97% 3.5 mph S5.6 kmh S 5.8 mph9.3 kmh 30.07 in1018.3 mb - 0.00 in0.0 mm 0.00 in0.0 mm
06:20 AM 29.8°F-1.2°C 29.1°F-1.6°C 97% 4.6 mph S7.4 kmh S 9.2 mph14.8 kmh 30.07 in1018.3 mb - 0.00 in0.0 mm 0.00 in0.0 mm
06:10 AM 28.9°F-1.7°C 28.2°F-2.1°C 97% 2.3 mph SSE3.7 kmh SSE 4.6 mph7.4 kmh 30.05 in1017.6 mb - 0.00 in0.0 mm 0.00 in0.0 mm
06:00 AM 28.6°F-1.9°C 27.8°F-2.3°C 97% 1.2 mph SE1.9 kmh SE 3.5 mph5.6 kmh 30.06 in1017.9 mb - 0.00 in0.0 mm 0.00 in0.0 mm
05:50 AM 28.2°F-2.1°C 27.4°F-2.6°C 97% 1.2 mph S1.9 kmh S 2.3 mph3.7 kmh 30.06 in1017.9 mb - 0.00 in0.0 mm 0.00 in0.0 mm
05:40 AM 27.5°F-2.5°C 26.5°F-3.1°C 96% 1.2 mph SE1.9 kmh SE 1.2 mph1.9 kmh 30.06 in1017.9 mb - 0.00 in0.0 mm 0.00 in0.0 mm
05:30 AM 26.8°F-2.9°C 25.8°F-3.4°C 96% Calm Calm 1.2 mph1.9 kmh 30.07 in1018.3 mb - 0.00 in0.0 mm 0.00 in0.0 mm
05:20 AM 26.4°F-3.1°C 25.4°F-3.7°C 96% 1.2 mph SSE1.9 kmh SSE 1.2 mph1.9 kmh 30.07 in1018.3 mb - 0.00 in0.0 mm 0.00 in0.0 mm
05:10 AM 26.2°F-3.2°C 25.0°F-3.9°C 95% 1.2 mph S1.9 kmh S 2.3 mph3.7 kmh 30.08 in1018.6 mb - 0.00 in0.0 mm 0.00 in0.0 mm
05:00 AM 26.4°F-3.1°C 25.2°F-3.8°C 95% 1.2 mph S1.9 kmh S 1.2 mph1.9 kmh 30.09 in1019.0 mb - 0.00 in0.0 mm 0.00 in0.0 mm
04:50 AM 26.9°F-2.8°C 25.7°F-3.5°C 95% 1.2 mph S1.9 kmh S 2.3 mph3.7 kmh 30.09 in1019.0 mb - 0.00 in0.0 mm 0.00 in0.0 mm
04:40 AM 27.1°F-2.7°C 26.1°F-3.3°C 96% 1.2 mph S1.9 kmh S 2.3 mph3.7 kmh 30.08 in1018.6 mb - 0.00 in0.0 mm 0.00 in0.0 mm
04:30 AM 26.9°F-2.8°C 25.9°F-3.4°C 96% 1.2 mph SSE1.9 kmh SSE 2.3 mph3.7 kmh 30.08 in1018.6 mb - 0.00 in0.0 mm 0.00 in0.0 mm
04:20 AM 27.0°F-2.8°C 25.8°F-3.4°C 95% 1.2 mph S1.9 kmh S 2.3 mph3.7 kmh 30.09 in1019.0 mb - 0.00 in0.0 mm 0.00 in0.0 mm
04:10 AM 27.3°F-2.6°C 26.3°F-3.2°C 96% 1.2 mph S1.9 kmh S 2.3 mph3.7 kmh 30.10 in1019.3 mb - 0.00 in0.0 mm 0.00 in0.0 mm
04:00 AM 27.4°F-2.6°C 26.4°F-3.1°C 96% 1.2 mph SSE1.9 kmh SSE 3.5 mph5.6 kmh 30.10 in1019.3 mb - 0.00 in0.0 mm 0.00 in0.0 mm
03:50 AM 27.3°F-2.6°C 26.3°F-3.2°C 96% 1.2 mph SSE1.9 kmh SSE 3.5 mph5.6 kmh 30.10 in1019.3 mb - 0.00 in0.0 mm 0.00 in0.0 mm
03:40 AM 27.3°F-2.6°C 26.0°F-3.3°C 95% 1.2 mph S1.9 kmh S 2.3 mph3.7 kmh 30.11 in1019.6 mb - 0.00 in0.0 mm 0.00 in0.0 mm
03:30 AM 27.4°F-2.6°C 26.4°F-3.1°C 96% 1.2 mph S1.9 kmh S 3.5 mph5.6 kmh 30.11 in1019.6 mb - 0.00 in0.0 mm 0.00 in0.0 mm
03:20 AM 27.2°F-2.7°C 26.3°F-3.2°C 96% 2.3 mph SSE3.7 kmh SSE 3.5 mph5.6 kmh 30.11 in1019.6 mb - 0.00 in0.0 mm 0.00 in0.0 mm
03:10 AM 27.2°F-2.7°C 26.2°F-3.2°C 96% 1.2 mph S1.9 kmh S 2.3 mph3.7 kmh 30.12 in1020.0 mb - 0.00 in0.0 mm 0.00 in0.0 mm
03:00 AM 27.2°F-2.7°C 26.2°F-3.2°C 96% 2.3 mph S3.7 kmh S 3.5 mph5.6 kmh 30.13 in1020.3 mb - 0.00 in0.0 mm 0.00 in0.0 mm
02:50 AM 27.0°F-2.8°C 26.0°F-3.3°C 96% 1.2 mph S1.9 kmh S 2.3 mph3.7 kmh 30.13 in1020.3 mb - 0.00 in0.0 mm 0.00 in0.0 mm
02:40 AM 26.9°F-2.8°C 25.6°F-3.6°C 95% 1.2 mph S1.9 kmh S 3.5 mph5.6 kmh 30.14 in1020.7 mb - 0.00 in0.0 mm 0.00 in0.0 mm
02:30 AM 27.0°F-2.8°C 25.8°F-3.4°C 95% 1.2 mph S1.9 kmh S 2.3 mph3.7 kmh 30.14 in1020.7 mb - 0.00 in0.0 mm 0.00 in0.0 mm
02:20 AM 27.2°F-2.7°C 26.0°F-3.3°C 95% Calm Calm 1.2 mph1.9 kmh 30.14 in1020.7 mb - 0.00 in0.0 mm 0.00 in0.0 mm
02:10 AM 27.5°F-2.5°C 26.2°F-3.2°C 95% Calm Calm 2.3 mph3.7 kmh 30.14 in1020.7 mb - 0.00 in0.0 mm 0.00 in0.0 mm
02:00 AM 27.6°F-2.4°C 26.6°F-3.0°C 96% 1.2 mph S1.9 kmh S 1.2 mph1.9 kmh 30.14 in1020.7 mb - 0.00 in0.0 mm 0.00 in0.0 mm
01:50 AM 27.6°F-2.4°C 26.4°F-3.1°C 95% 1.2 mph S1.9 kmh S 2.3 mph3.7 kmh 30.15 in1021.0 mb - 0.00 in0.0 mm 0.00 in0.0 mm
01:40 AM 27.8°F-2.3°C 26.6°F-3.0°C 95% 1.2 mph S1.9 kmh S 2.3 mph3.7 kmh 30.15 in1021.0 mb - 0.00 in0.0 mm 0.00 in0.0 mm
01:30 AM 28.1°F-2.2°C 26.8°F-2.9°C 95% 1.2 mph S1.9 kmh S 2.3 mph3.7 kmh 30.14 in1020.7 mb - 0.00 in0.0 mm 0.00 in0.0 mm
01:20 AM 28.2°F-2.1°C 27.0°F-2.8°C 95% 1.2 mph S1.9 kmh S 1.2 mph1.9 kmh 30.15 in1021.0 mb - 0.00 in0.0 mm 0.00 in0.0 mm
01:10 AM 28.6°F-1.9°C 27.4°F-2.6°C 95% 1.2 mph S1.9 kmh S 1.2 mph1.9 kmh 30.15 in1021.0 mb - 0.00 in0.0 mm 0.00 in0.0 mm
01:00 AM 28.8°F-1.8°C 27.8°F-2.3°C 96% 1.2 mph S1.9 kmh S 2.3 mph3.7 kmh 30.16 in1021.3 mb - 0.00 in0.0 mm 0.00 in0.0 mm
12:50 AM 28.7°F-1.8°C 27.7°F-2.4°C 96% 1.2 mph S1.9 kmh S 3.5 mph5.6 kmh 30.16 in1021.3 mb - 0.00 in0.0 mm 0.00 in0.0 mm
12:40 AM 28.7°F-1.8°C 27.7°F-2.4°C 96% 1.2 mph S1.9 kmh S 3.5 mph5.6 kmh 30.16 in1021.3 mb - 0.00 in0.0 mm 0.00 in0.0 mm
12:30 AM 28.7°F-1.8°C 27.4°F-2.6°C 95% 1.2 mph S1.9 kmh S 2.3 mph3.7 kmh 30.16 in1021.3 mb - 0.00 in0.0 mm 0.00 in0.0 mm
12:20 AM 28.8°F-1.8°C 27.5°F-2.5°C 95% 1.2 mph S1.9 kmh S 3.5 mph5.6 kmh 30.17 in1021.7 mb - 0.00 in0.0 mm 0.00 in0.0 mm
12:10 AM 29.1°F-1.6°C 28.1°F-2.2°C 96% 1.2 mph S1.9 kmh S 2.3 mph3.7 kmh 30.16 in1021.3 mb - 0.00 in0.0 mm 0.00 in0.0 mm
12:00 AM 29.2°F-1.6°C 28.2°F-2.1°C 96% 1.2 mph S1.9 kmh S 3.5 mph5.6 kmh 30.16 in1021.3 mb - 0.00 in0.0 mm 0.00 in0.0 mm